Time;durP1;ratioP1;P1;durP2;ratioP2;P2;SDS_P1;SDS_P2;PMS_P1;PMS_P2;Temp;Humidity;BMP_temperature;BMP_pressure;BME280_temperature;BME280_humidity;BME280_pressure;Samples;Min_cycle;Max_cycle;Signal;HPM_P1;HPM_P2
2021/12/20 00:00:59;;;;;;;23.20;3.03;;;9.20;98.30;;;;;;5019902;28;20161;-89
2021/12/20 00:03:25;;;;;;;29.02;3.95;;;9.10;98.50;;;;;;5019669;28;20079;-89
2021/12/20 00:05:51;;;;;;;27.65;4.18;;;9.30;98.30;;;;;;5019424;28;20080;-88
2021/12/20 00:08:17;;;;;;;20.52;2.72;;;9.20;98.10;;;;;;5019543;28;20049;-89
2021/12/20 00:10:43;;;;;;;25.10;3.55;;;9.20;98.30;;;;;;5019439;28;20076;-89
2021/12/20 00:13:09;;;;;;;31.00;3.88;;;9.20;98.40;;;;;;5019357;28;20053;-89
2021/12/20 00:15:35;;;;;;;21.20;3.00;;;9.10;98.10;;;;;;5019521;28;20099;-89
2021/12/20 00:18:01;;;;;;;17.42;3.60;;;9.10;98.30;;;;;;5019137;28;20049;-89
2021/12/20 00:20:29;;;;;;;21.88;2.53;;;9.10;98.30;;;;;;5019362;28;20037;-88
2021/12/20 00:22:55;;;;;;;23.55;3.80;;;9.10;98.20;;;;;;5018428;28;20045;-89
2021/12/20 00:25:21;;;;;;;19.98;2.55;;;9.10;98.30;;;;;;5035798;28;20037;-89
2021/12/20 00:27:47;;;;;;;19.33;3.15;;;9.10;98.50;;;;;;5019173;28;20361;-90
2021/12/20 00:30:13;;;;;;;25.58;3.28;;;9.10;98.50;;;;;;4986979;28;20530;-89
2021/12/20 00:32:40;;;;;;;23.15;3.30;;;9.00;98.20;;;;;;5002953;28;20088;-89
2021/12/20 00:35:09;;;;;;;28.15;3.03;;;9.00;98.30;;;;;;5003045;28;20049;-89
2021/12/20 00:40:23;;;;;;;25.50;3.30;;;9.10;98.30;;;;;;5035346;28;20056;-89
2021/12/20 00:43:08;;;;;;;24.50;3.10;;;9.10;98.60;;;;;;5035469;28;20045;-89
2021/12/20 00:45:37;;;;;;;21.95;3.50;;;9.10;98.60;;;;;;5035247;28;20103;-89
2021/12/20 00:48:04;;;;;;;27.95;2.85;;;9.00;98.30;;;;;;5034415;28;20040;-90
2021/12/20 00:50:31;;;;;;;26.00;3.35;;;9.00;98.50;;;;;;5018622;28;20045;-89
2021/12/20 00:52:57;;;;;;;15.85;3.03;;;9.00;98.50;;;;;;5002103;28;20045;-89
2021/12/20 00:55:26;;;;;;;19.23;2.85;;;9.00;98.70;;;;;;5018877;28;20052;-88
2021/12/20 00:57:54;;;;;;;26.17;3.10;;;9.00;98.80;;;;;;5018113;28;20045;-88
2021/12/20 01:00:29;;;;;;;26.95;3.33;;;8.90;98.60;;;;;;5018500;28;20052;-89
2021/12/20 01:02:55;;;;;;;28.95;2.83;;;9.00;98.50;;;;;;5018945;28;20461;-89
2021/12/20 01:05:23;;;;;;;29.70;4.25;;;8.90;98.40;;;;;;5034559;28;20048;-89
2021/12/20 01:07:54;;;;;;;28.10;3.67;;;8.80;98.10;;;;;;5051381;28;20485;-88
2021/12/20 01:10:20;;;;;;;22.33;2.85;;;8.70;98.10;;;;;;5002542;28;20038;-89
2021/12/20 01:12:49;;;;;;;21.73;2.80;;;8.70;98.10;;;;;;5018500;28;20045;-89
2021/12/20 01:15:22;;;;;;;20.85;2.60;;;8.70;98.20;;;;;;5034647;28;20045;-89
2021/12/20 01:17:49;;;;;;;23.30;2.92;;;8.70;97.90;;;;;;5018441;28;20084;-89
2021/12/20 01:20:15;;;;;;;25.35;2.75;;;8.70;97.80;;;;;;5034712;28;20127;-89
2021/12/20 01:22:46;;;;;;;19.23;2.55;;;8.50;97.80;;;;;;5001194;28;20565;-88
2021/12/20 01:25:13;;;;;;;18.60;2.50;;;8.30;97.70;;;;;;5017664;28;20108;-88
2021/12/20 01:27:39;;;;;;;18.33;2.30;;;8.30;97.80;;;;;;5033798;28;20041;-87
2021/12/20 01:30:07;;;;;;;15.73;2.70;;;8.20;97.90;;;;;;5018614;28;20455;-88
2021/12/20 01:32:33;;;;;;;16.13;2.00;;;8.20;97.70;;;;;;5017991;28;20100;-88
2021/12/20 01:34:59;;;;;;;17.98;2.40;;;8.00;97.70;;;;;;5034219;28;20080;-88
2021/12/20 01:37:24;;;;;;;18.80;1.80;;;7.90;98.10;;;;;;5033915;28;20084;-88
2021/12/20 01:39:52;;;;;;;19.83;2.30;;;8.00;97.80;;;;;;5017365;28;20611;-88
2021/12/20 01:42:19;;;;;;;24.55;3.60;;;8.10;97.90;;;;;;5050279;28;20389;-88
2021/12/20 01:44:48;;;;;;;20.10;1.92;;;8.30;97.80;;;;;;5017635;28;20404;-89
2021/12/20 01:47:14;;;;;;;12.15;2.60;;;8.30;97.60;;;;;;5017110;28;20112;-88
2021/12/20 01:49:57;;;;;;;10.45;1.30;;;8.30;97.60;;;;;;5033527;28;20053;-88
2021/12/20 01:52:26;;;;;;;13.90;1.77;;;8.30;97.60;;;;;;5033619;28;20401;-88
2021/12/20 01:54:52;;;;;;;10.43;1.27;;;8.30;97.50;;;;;;5016791;28;20053;-88
2021/12/20 01:57:19;;;;;;;7.15;1.20;;;8.40;97.80;;;;;;5033850;28;20049;-88
2021/12/20 01:59:45;;;;;;;13.88;1.67;;;8.40;97.90;;;;;;5000028;28;20064;-88
2021/12/20 02:02:11;;;;;;;10.52;1.52;;;8.40;98.00;;;;;;5000790;28;20041;-88
2021/12/20 02:04:44;;;;;;;10.40;1.50;;;8.40;98.10;;;;;;5033654;28;20450;-88
2021/12/20 02:07:29;;;;;;;15.50;1.45;;;8.40;97.90;;;;;;5002349;28;20048;-88
2021/12/20 02:09:55;;;;;;;9.55;1.00;;;8.40;97.80;;;;;;5009385;28;20041;-87
2021/12/20 02:12:21;;;;;;;12.50;1.50;;;8.40;98.00;;;;;;5018818;28;20049;-88
2021/12/20 02:14:46;;;;;;;13.80;1.85;;;8.40;98.10;;;;;;5000625;28;20033;-88
2021/12/20 02:17:14;;;;;;;11.35;2.10;;;8.30;97.70;;;;;;5000347;28;20088;-88
2021/12/20 02:19:40;;;;;;;12.57;1.50;;;8.20;97.90;;;;;;5000339;28;20049;-88
2021/12/20 02:22:06;;;;;;;12.00;1.50;;;8.30;98.10;;;;;;5015988;28;20045;-87
2021/12/20 02:24:32;;;;;;;12.50;1.73;;;8.20;97.90;;;;;;5032966;28;20052;-87
2021/12/20 02:27:00;;;;;;;12.00;1.45;;;8.10;97.80;;;;;;5016386;28;20041;-88
2021/12/20 02:29:41;;;;;;;10.98;1.35;;;8.00;98.00;;;;;;5017173;28;20095;-88
2021/12/20 02:37:38;;;;;;;18.13;1.90;;;8.20;98.20;;;;;;5033033;28;20411;-88
2021/12/20 02:40:05;;;;;;;11.45;1.65;;;8.20;98.30;;;;;;4999856;28;20136;-88
2021/12/20 02:42:39;;;;;;;12.20;1.30;;;8.20;98.00;;;;;;5016195;28;20122;-88
2021/12/20 02:45:11;;;;;;;16.48;1.85;;;8.10;98.30;;;;;;5000403;28;20059;-87
2021/12/20 02:47:47;;;;;;;11.25;1.55;;;8.10;98.20;;;;;;5032451;28;20046;-87
2021/12/20 02:50:14;;;;;;;;;;;8.20;98.30;;;;;;5033144;28;20508;-88
2021/12/20 02:52:40;;;;;;;12.75;1.27;;;8.20;98.30;;;;;;5032146;28;19968;-87
2021/12/20 02:55:08;;;;;;;11.30;1.42;;;8.10;98.20;;;;;;5016205;28;20092;-87
2021/12/20 02:57:35;;;;;;;8.02;1.25;;;8.10;98.10;;;;;;5015819;28;20045;-87
2021/12/20 03:00:02;;;;;;;8.23;1.58;;;8.00;98.00;;;;;;5049254;28;20488;-87
2021/12/20 03:02:27;;;;;;;13.50;1.38;;;7.90;98.00;;;;;;5016202;28;20136;-88
2021/12/20 03:04:53;;;;;;;14.13;1.15;;;7.90;98.40;;;;;;5016123;28;20136;-87
2021/12/20 03:07:25;;;;;;;15.25;1.80;;;8.00;98.20;;;;;;5015783;28;20085;-87
2021/12/20 03:10:00;;;;;;;15.00;1.98;;;8.00;98.20;;;;;;5032977;28;20476;-87
2021/12/20 03:12:28;;;;;;;11.80;1.52;;;8.00;98.30;;;;;;5004885;28;20050;-87
2021/12/20 03:15:00;;;;;;;12.30;1.63;;;8.00;98.30;;;;;;5004031;28;20085;-87
2021/12/20 03:17:26;;;;;;;10.13;1.27;;;8.00;98.20;;;;;;5036320;28;20045;-87
2021/12/20 03:19:52;;;;;;;15.25;1.80;;;8.10;98.30;;;;;;5036604;28;20049;-87
2021/12/20 03:22:18;;;;;;;11.50;2.03;;;8.00;98.30;;;;;;5002745;28;20045;-87
2021/12/20 03:24:44;;;;;;;16.75;1.75;;;8.00;98.00;;;;;;5019984;28;20056;-87
2021/12/20 03:27:10;;;;;;;12.70;1.92;;;8.00;98.40;;;;;;5036351;28;20037;-87
2021/12/20 03:29:35;;;;;;;14.85;1.50;;;7.90;98.20;;;;;;5019472;28;20053;-87
2021/12/20 03:32:02;;;;;;;11.15;1.35;;;8.00;98.30;;;;;;5019134;28;20045;-87
2021/12/20 03:34:27;;;;;;;14.88;1.60;;;8.00;98.40;;;;;;5036166;28;20052;-87
2021/12/20 03:36:53;;;;;;;15.27;1.58;;;7.90;98.40;;;;;;5019469;28;20045;-87
2021/12/20 03:39:19;;;;;;;9.85;1.10;;;7.90;98.40;;;;;;5019311;28;20092;-87
2021/12/20 03:41:45;;;;;;;13.32;1.42;;;7.90;98.10;;;;;;5019552;28;20099;-87
2021/12/20 03:44:11;;;;;;;13.63;1.48;;;7.80;98.00;;;;;;5035756;28;20045;-87
2021/12/20 03:46:37;;;;;;;7.63;1.23;;;7.60;98.00;;;;;;5035913;28;20053;-87
2021/12/20 03:49:04;;;;;;;14.27;1.58;;;7.60;98.10;;;;;;5019137;28;20396;-87
2021/12/20 03:51:29;;;;;;;14.85;1.50;;;7.60;98.30;;;;;;5035255;28;20045;-87
2021/12/20 03:53:55;;;;;;;11.18;1.10;;;7.50;98.30;;;;;;5019245;28;20099;-86
2021/12/20 03:56:21;;;;;;;13.07;1.40;;;7.40;98.10;;;;;;4986553;28;20088;-87
2021/12/20 03:58:46;;;;;;;10.70;1.20;;;7.40;98.20;;;;;;5019416;28;20396;-87
2021/12/20 04:01:13;;;;;;;15.35;1.40;;;7.20;98.10;;;;;;5035303;28;20037;-87
2021/12/20 04:03:40;;;;;;;9.63;1.40;;;7.20;98.10;;;;;;5019203;28;20086;-87
2021/12/20 04:06:08;;;;;;;10.57;1.15;;;7.20;98.20;;;;;;5018769;28;20053;-87
2021/12/20 04:08:34;;;;;;;16.48;2.05;;;6.90;98.00;;;;;;5051731;28;20447;-87
2021/12/20 04:11:00;;;;;;;16.65;1.40;;;6.90;98.30;;;;;;5018840;28;20053;-87
2021/12/20 04:13:27;;;;;;;7.65;1.27;;;6.80;98.40;;;;;;5018815;28;20080;-87
2021/12/20 04:15:56;;;;;;;12.85;1.35;;;6.70;98.30;;;;;;5018921;28;20057;-87
2021/12/20 04:18:23;;;;;;;13.30;1.20;;;6.60;98.40;;;;;;5019048;28;20045;-86
2021/12/20 04:20:49;;;;;;;9.07;1.45;;;6.60;98.80;;;;;;5034959;28;20522;-87
2021/12/20 04:23:15;;;;;;;13.07;2.08;;;6.70;98.70;;;;;;5017669;28;20491;-86
2021/12/20 04:25:41;;;;;;;15.40;1.52;;;6.70;98.50;;;;;;5018779;28;20049;-86
2021/12/20 04:28:07;;;;;;;14.45;1.50;;;6.60;98.50;;;;;;5051442;28;20065;-86
2021/12/20 04:30:33;;;;;;;14.10;1.55;;;6.60;98.60;;;;;;5002224;28;20080;-87
2021/12/20 04:33:00;;;;;;;7.15;0.88;;;6.60;98.70;;;;;;5001938;28;20397;-87
2021/12/20 04:35:26;;;;;;;16.45;1.55;;;6.60;98.50;;;;;;5018470;28;20128;-87
2021/12/20 04:37:53;;;;;;;13.52;1.50;;;6.50;98.50;;;;;;5018405;28;20045;-86
2021/12/20 04:40:21;;;;;;;6.30;1.02;;;6.30;98.40;;;;;;5017808;28;20062;-87
2021/12/20 04:42:49;;;;;;;9.13;1.48;;;6.30;98.40;;;;;;5034954;28;20085;-86
2021/12/20 04:45:15;;;;;;;10.23;1.27;;;6.30;98.60;;;;;;5034558;28;20043;-86
2021/12/20 04:47:41;;;;;;;5.72;1.17;;;6.30;98.90;;;;;;5017997;28;20045;-87
2021/12/20 04:50:08;;;;;;;12.50;1.58;;;6.30;98.40;;;;;;5034395;28;20052;-87
2021/12/20 04:52:34;;;;;;;15.98;1.92;;;6.10;98.40;;;;;;5017790;28;20053;-86
2021/12/20 04:54:59;;;;;;;13.63;1.38;;;6.10;98.60;;;;;;5001841;28;20511;-86
2021/12/20 04:57:25;;;;;;;9.93;1.45;;;6.00;98.60;;;;;;5034694;28;20053;-86
2021/12/20 04:59:51;;;;;;;14.32;1.83;;;6.00;98.80;;;;;;5034812;28;20057;-86
2021/12/20 05:02:16;;;;;;;13.13;1.83;;;6.00;98.30;;;;;;5001618;28;20052;-87
2021/12/20 05:04:42;;;;;;;14.75;1.88;;;5.90;98.60;;;;;;5001638;28;20053;-86
2021/12/20 05:07:08;;;;;;;15.23;2.13;;;5.70;98.40;;;;;;5017553;28;20042;-86
2021/12/20 05:09:38;;;;;;;9.90;1.15;;;5.70;98.60;;;;;;5017550;28;20049;-87
2021/12/20 05:12:13;;;;;;;14.05;1.80;;;5.70;98.90;;;;;;5018248;28;20056;-86
2021/12/20 05:14:40;;;;;;;13.90;1.65;;;5.80;99.10;;;;;;5017728;28;20525;-87
2021/12/20 05:17:07;;;;;;;12.93;1.20;;;5.80;98.80;;;;;;5017272;28;20508;-86
2021/12/20 05:19:33;;;;;;;9.85;1.30;;;5.80;98.80;;;;;;5017406;28;20053;-86
2021/12/20 05:21:59;;;;;;;15.35;1.48;;;5.80;98.80;;;;;;5033763;28;20053;-86
2021/12/20 05:24:24;;;;;;;13.52;1.63;;;5.80;98.50;;;;;;5017449;28;20054;-86
2021/12/20 05:26:50;;;;;;;10.20;1.10;;;5.70;98.40;;;;;;5033681;28;20077;-87
2021/12/20 05:29:16;;;;;;;8.95;1.17;;;5.60;98.80;;;;;;5017280;28;20045;-86
2021/12/20 05:31:42;;;;;;;14.52;1.45;;;5.70;98.90;;;;;;5033470;28;20111;-87
2021/12/20 05:34:07;;;;;;;14.20;1.40;;;5.60;98.70;;;;;;5016251;28;20042;-87
2021/12/20 05:36:33;;;;;;;15.88;1.52;;;5.60;98.50;;;;;;5017273;28;20504;-86
2021/12/20 05:38:59;;;;;;;10.60;1.13;;;5.50;98.50;;;;;;5017775;28;20057;-86
2021/12/20 05:41:25;;;;;;;8.13;1.23;;;5.40;98.60;;;;;;5033101;28;20072;-86
2021/12/20 05:43:50;;;;;;;11.63;1.33;;;5.40;98.80;;;;;;5001342;28;20053;-86
2021/12/20 05:46:16;;;;;;;8.68;1.13;;;5.40;98.70;;;;;;5016976;28;20459;-87
2021/12/20 05:48:42;;;;;;;13.90;1.48;;;5.40;98.90;;;;;;5016659;28;20128;-87
2021/12/20 05:51:08;;;;;;;10.27;1.70;;;5.40;98.70;;;;;;5000678;28;20483;-86
2021/12/20 05:53:34;;;;;;;12.85;1.52;;;5.40;98.70;;;;;;5000259;28;20088;-86
2021/12/20 05:56:00;;;;;;;10.65;1.05;;;5.30;98.60;;;;;;5016967;28;20084;-86
2021/12/20 05:58:26;;;;;;;7.78;1.02;;;5.30;98.70;;;;;;5016615;28;20488;-86
2021/12/20 06:00:52;;;;;;;10.05;1.42;;;5.30;98.70;;;;;;5016804;28;20057;-86
2021/12/20 06:03:17;;;;;;;12.85;1.23;;;5.40;98.90;;;;;;5033177;28;20091;-86
2021/12/20 06:05:43;;;;;;;12.63;1.58;;;5.40;98.70;;;;;;5016866;28;20397;-86
2021/12/20 06:08:10;;;;;;;8.80;1.33;;;5.30;98.70;;;;;;4999920;28;20203;-86
2021/12/20 06:10:36;;;;;;;14.32;1.52;;;5.20;98.70;;;;;;5000490;28;20136;-86
2021/12/20 06:13:03;;;;;;;10.70;1.27;;;5.20;98.40;;;;;;5016630;28;20488;-86
2021/12/20 06:15:29;;;;;;;15.73;1.75;;;5.10;98.70;;;;;;5016263;28;20444;-86
2021/12/20 06:17:55;;;;;;;11.63;1.75;;;5.00;98.80;;;;;;5032779;28;20049;-86
2021/12/20 06:20:21;;;;;;;10.60;1.55;;;5.00;98.90;;;;;;5017071;28;20488;-84
2021/12/20 06:22:47;;;;;;;11.25;1.70;;;5.10;99.10;;;;;;4999847;28;20466;-85
2021/12/20 06:25:13;;;;;;;9.38;1.33;;;5.10;99.10;;;;;;5032617;28;20045;-86
2021/12/20 06:27:39;;;;;;;14.07;1.70;;;5.30;99.20;;;;;;5032804;28;20141;-86
2021/12/20 06:30:09;;;;;;;7.93;1.63;;;5.30;99.00;;;;;;4999830;28;20045;-86
2021/12/20 06:32:36;;;;;;;5.45;1.10;;;5.30;98.80;;;;;;5033110;28;20049;-86
2021/12/20 06:35:06;;;;;;;10.55;1.13;;;5.30;99.00;;;;;;5000075;28;20085;-86
2021/12/20 06:37:32;;;;;;;11.50;1.65;;;5.30;98.90;;;;;;5016196;28;20038;-86
2021/12/20 06:39:58;;;;;;;14.30;1.67;;;5.30;98.80;;;;;;5032477;28;20053;-86
2021/12/20 06:42:25;;;;;;;16.73;1.25;;;5.20;98.50;;;;;;5032876;28;20141;-85
2021/12/20 06:44:51;;;;;;;13.90;1.92;;;5.00;98.40;;;;;;5031987;28;20099;-85
2021/12/20 06:47:18;;;;;;;7.35;1.35;;;4.90;99.00;;;;;;5015952;28;20045;-85
2021/12/20 06:49:44;;;;;;;14.50;1.80;;;4.90;98.90;;;;;;5049220;28;20133;-85
2021/12/20 06:52:10;;;;;;;11.13;1.20;;;4.80;98.80;;;;;;4999205;28;20084;-85
2021/12/20 06:54:35;;;;;;;9.93;1.40;;;4.80;98.90;;;;;;5032403;28;20060;-85
2021/12/20 06:57:02;;;;;;;7.72;1.15;;;4.80;98.90;;;;;;5015713;28;20401;-86
2021/12/20 06:59:28;;;;;;;17.50;2.08;;;4.80;98.90;;;;;;5032325;28;20045;-85
2021/12/20 07:01:54;;;;;;;10.75;1.42;;;4.80;98.90;;;;;;4999828;28;20053;-85
2021/12/20 07:04:20;;;;;;;11.70;1.23;;;4.70;98.90;;;;;;5015953;28;20060;-85
2021/12/20 07:06:46;;;;;;;12.38;1.30;;;4.70;99.20;;;;;;4999727;28;20106;-85
2021/12/20 07:09:12;;;;;;;11.43;1.35;;;4.80;99.00;;;;;;5015930;28;20440;-85
2021/12/20 07:11:40;;;;;;;7.38;1.30;;;4.80;98.80;;;;;;5016259;28;20046;-85
2021/12/20 07:14:07;;;;;;;9.93;1.40;;;4.80;99.00;;;;;;5032147;28;20128;-86
2021/12/20 07:16:34;;;;;;;12.57;1.63;;;4.80;98.90;;;;;;5032298;28;20091;-86
2021/12/20 07:19:01;;;;;;;10.68;1.20;;;4.70;98.70;;;;;;5016172;28;20136;-86
2021/12/20 07:21:26;;;;;;;10.13;1.65;;;4.60;98.70;;;;;;5031607;28;20481;-85
2021/12/20 07:23:52;;;;;;;8.98;1.10;;;4.60;99.00;;;;;;5032338;28;20095;-85
2021/12/20 07:26:18;;;;;;;10.05;1.10;;;4.60;98.90;;;;;;5031943;28;20144;-86
2021/12/20 07:28:44;;;;;;;8.43;1.40;;;4.50;98.60;;;;;;5031733;28;20548;-85
2021/12/20 07:31:11;;;;;;;5.90;1.30;;;4.40;98.90;;;;;;5032130;28;20555;-85
2021/12/20 07:33:37;;;;;;;17.25;2.08;;;4.50;99.00;;;;;;5015801;28;20089;-85
2021/12/20 07:36:04;;;;;;;11.02;1.30;;;4.50;98.90;;;;;;5032079;28;20124;-85
2021/12/20 07:38:30;;;;;;;14.07;1.73;;;4.50;99.00;;;;;;5015641;28;20087;-86
2021/12/20 07:40:55;;;;;;;14.32;2.03;;;4.60;99.30;;;;;;5014932;28;20085;-85
2021/12/20 07:43:21;;;;;;;13.93;1.90;;;4.60;99.10;;;;;;5031964;28;20068;-86
2021/12/20 07:45:48;;;;;;;11.57;1.30;;;4.70;98.90;;;;;;4999364;28;20045;-85
2021/12/20 07:48:15;;;;;;;9.82;1.67;;;4.50;98.60;;;;;;5015657;28;20084;-86
2021/12/20 07:50:41;;;;;;;11.55;2.35;;;4.60;98.80;;;;;;5015573;28;20132;-86
2021/12/20 07:53:07;;;;;;;9.40;1.70;;;4.60;98.80;;;;;;5031664;28;20132;-73
2021/12/20 07:55:32;;;;;;;17.27;1.80;;;4.40;98.50;;;;;;5031855;28;20080;-74
2021/12/20 07:57:59;;;;;;;10.77;1.77;;;4.30;98.70;;;;;;5034393;28;20053;-72
2021/12/20 08:00:25;;;;;;;11.93;1.80;;;4.30;98.90;;;;;;5035354;28;20087;-72
2021/12/20 08:02:51;;;;;;;13.13;1.90;;;4.30;99.00;;;;;;5035278;28;20085;-72
2021/12/20 08:05:19;;;;;;;16.08;2.10;;;4.20;98.90;;;;;;5018896;28;20469;-73
2021/12/20 08:07:48;;;;;;;13.43;1.40;;;4.20;99.00;;;;;;5034939;28;20054;-73
2021/12/20 08:10:15;;;;;;;14.75;1.35;;;4.20;98.90;;;;;;5035136;28;20106;-73
2021/12/20 08:12:40;;;;;;;9.00;1.35;;;4.20;99.00;;;;;;5035165;28;20106;-73
2021/12/20 08:15:07;;;;;;;14.93;1.85;;;4.20;98.90;;;;;;5051640;28;20049;-73
2021/12/20 08:17:32;;;;;;;7.97;1.20;;;4.30;98.80;;;;;;5018709;28;20072;-73
2021/12/20 08:19:58;;;;;;;10.18;1.38;;;4.30;98.90;;;;;;5034817;28;20146;-73
2021/12/20 08:22:25;;;;;;;5.28;1.25;;;4.30;98.90;;;;;;5034591;28;20048;-74
2021/12/20 08:24:52;;;;;;;9.38;1.27;;;4.30;98.90;;;;;;5034507;28;20052;-74
2021/12/20 08:27:18;;;;;;;10.02;1.40;;;4.30;99.00;;;;;;5035345;28;20565;-74
2021/12/20 08:29:43;;;;;;;8.45;1.48;;;4.30;99.10;;;;;;5036071;28;20140;-73
2021/12/20 08:32:09;;;;;;;5.03;1.40;;;4.30;98.90;;;;;;5035202;28;20488;-74
2021/12/20 08:34:35;;;;;;;14.77;1.60;;;4.30;98.90;;;;;;5018213;28;20396;-73
2021/12/20 08:37:03;;;;;;;8.10;1.80;;;4.20;98.80;;;;;;5035806;28;20061;-73
2021/12/20 08:39:30;;;;;;;9.43;1.30;;;4.10;99.00;;;;;;5045069;28;20084;-75
2021/12/20 08:41:57;;;;;;;16.77;1.60;;;4.20;99.20;;;;;;5034183;28;20054;-72
2021/12/20 08:44:24;;;;;;;9.82;1.83;;;4.30;99.20;;;;;;5034702;28;20045;-72
2021/12/20 08:46:51;;;;;;;16.42;2.10;;;4.30;99.00;;;;;;5034620;28;20508;-73
2021/12/20 08:49:16;;;;;;;16.15;2.53;;;4.30;98.90;;;;;;5034635;28;20465;-72
2021/12/20 08:51:42;;;;;;;6.82;2.20;;;4.30;99.00;;;;;;5017479;28;20041;-72
2021/12/20 08:54:08;;;;;;;11.32;2.20;;;4.30;99.00;;;;;;5034596;28;20132;-72
2021/12/20 08:56:34;;;;;;;8.68;1.80;;;4.30;99.00;;;;;;5034334;28;20133;-72
2021/12/20 08:59:00;;;;;;;13.07;2.20;;;4.30;99.00;;;;;;5036099;28;20053;-72
2021/12/20 09:01:26;;;;;;;12.57;2.10;;;4.40;99.10;;;;;;5034658;28;20073;-72
2021/12/20 09:03:52;;;;;;;15.75;2.13;;;4.40;99.20;;;;;;5017946;28;20053;-72
2021/12/20 09:06:21;;;;;;;6.93;1.48;;;4.50;99.10;;;;;;5034433;28;20118;-72
2021/12/20 09:08:47;;;;;;;14.90;1.92;;;4.50;99.20;;;;;;5018597;28;20045;-72
2021/12/20 09:11:13;;;;;;;12.52;2.03;;;4.60;99.20;;;;;;5034106;28;20053;-72
2021/12/20 09:13:38;;;;;;;14.75;2.30;;;4.60;99.00;;;;;;5034269;28;20103;-72
2021/12/20 09:16:04;;;;;;;8.77;2.42;;;4.70;99.10;;;;;;5034211;28;20045;-73
2021/12/20 09:18:30;;;;;;;15.73;2.60;;;4.70;99.00;;;;;;5034069;28;20045;-72
2021/12/20 09:20:56;;;;;;;10.52;1.88;;;4.80;99.10;;;;;;5034140;28;20076;-72
2021/12/20 09:23:26;;;;;;;8.93;2.00;;;4.80;99.10;;;;;;5033858;28;20045;-72
2021/12/20 09:25:51;;;;;;;9.82;1.73;;;4.90;99.20;;;;;;5034098;28;20087;-71
2021/12/20 09:28:19;;;;;;;11.30;2.10;;;5.00;99.00;;;;;;5020786;28;20073;-72
2021/12/20 09:30:46;;;;;;;13.07;1.90;;;5.10;99.10;;;;;;4997795;28;20068;-76
2021/12/20 09:33:13;;;;;;;10.15;1.67;;;5.00;98.90;;;;;;5020462;28;20489;-77
2021/12/20 09:35:38;;;;;;;15.27;2.20;;;5.00;99.00;;;;;;5033357;28;20100;-76
2021/12/20 09:38:08;;;;;;;10.23;2.20;;;5.10;99.20;;;;;;5014865;28;20069;-74
2021/12/20 09:40:40;;;;;;;7.25;1.77;;;5.20;99.30;;;;;;5045964;28;20049;-79
2021/12/20 09:43:13;;;;;;;7.38;1.85;;;5.40;99.40;;;;;;5033066;28;20538;-77
2021/12/20 09:45:42;;;;;;;13.32;2.47;;;5.50;99.30;;;;;;5033184;28;20140;-74
2021/12/20 09:48:08;;;;;;;9.07;2.60;;;5.60;99.00;;;;;;5033412;28;20054;-73
2021/12/20 09:50:34;;;;;;;11.02;2.25;;;5.60;98.90;;;;;;5033859;28;20114;-73
2021/12/20 09:53:04;;;;;;;15.13;2.50;;;5.70;99.10;;;;;;5033046;28;20068;-74
2021/12/20 09:55:30;;;;;;;11.77;2.22;;;5.80;99.20;;;;;;5033392;28;20071;-73
2021/12/20 09:57:59;;;;;;;19.33;3.35;;;5.90;99.30;;;;;;5033489;28;20041;-73
2021/12/20 10:00:25;;;;;;;22.88;3.33;;;6.00;99.20;;;;;;5033567;28;20107;-74
2021/12/20 10:02:51;;;;;;;24.05;3.60;;;6.20;99.30;;;;;;5033070;28;20041;-73
2021/12/20 10:05:18;;;;;;;16.05;2.70;;;6.30;99.20;;;;;;5033273;28;20057;-74
2021/12/20 10:07:50;;;;;;;18.10;2.97;;;6.40;99.10;;;;;;5016533;28;20512;-74
2021/12/20 10:10:36;;;;;;;10.05;1.98;;;6.50;99.00;;;;;;5034294;28;20049;-88
2021/12/20 10:13:02;;;;;;;118.47;14.80;;;6.80;99.90;;;;;;5017168;28;20392;-87
2021/12/20 10:15:39;;;;;;;49.83;9.40;;;7.10;99.40;;;;;;5033498;28;20038;-87
2021/12/20 10:18:12;;;;;;;25.52;5.00;;;7.10;99.40;;;;;;5033176;28;20155;-88
2021/12/20 10:20:37;;;;;;;24.73;3.80;;;7.50;99.50;;;;;;5033142;28;20105;-91
2021/12/20 10:23:22;;;;;;;16.23;3.10;;;7.70;98.80;;;;;;5033443;28;20058;-91
2021/12/20 10:25:54;;;;;;;25.83;3.55;;;8.00;98.40;;;;;;5017187;28;20098;-92
2021/12/20 10:28:23;;;;;;;20.08;3.00;;;8.20;98.40;;;;;;5033660;28;20057;-91
2021/12/20 10:30:57;;;;;;;20.65;2.75;;;8.30;98.10;;;;;;5016714;28;20045;-70
2021/12/20 10:33:24;;;;;;;21.45;2.70;;;8.50;98.00;;;;;;5033668;28;20053;-73
2021/12/20 10:36:02;;;;;;;23.73;3.05;;;8.70;97.80;;;;;;5019269;28;20140;-73
2021/12/20 10:38:37;;;;;;;25.85;4.10;;;8.90;97.50;;;;;;5016277;28;20053;-73
2021/12/20 10:41:15;;;;;;;18.77;3.03;;;9.00;97.40;;;;;;5020640;28;20050;-74
2021/12/20 10:43:55;;;;;;;26.45;3.15;;;9.00;97.50;;;;;;5025161;28;20064;-74
2021/12/20 10:46:27;;;;;;;21.67;3.63;;;8.90;97.30;;;;;;5032368;28;20485;-73
2021/12/20 10:49:02;;;;;;;23.42;3.42;;;8.90;97.40;;;;;;5032228;28;20053;-73
2021/12/20 10:51:39;;;;;;;22.75;3.42;;;8.90;97.30;;;;;;5032542;28;20058;-73
2021/12/20 10:54:10;;;;;;;17.88;2.97;;;8.90;97.30;;;;;;5013787;28;20050;-73
2021/12/20 10:56:51;;;;;;;27.58;3.60;;;8.90;97.20;;;;;;5012845;28;20049;-75
2021/12/20 10:59:23;;;;;;;23.45;2.75;;;8.90;97.30;;;;;;5013817;28;20053;-74
2021/12/20 11:04:27;;;;;;;13.93;2.90;;;8.60;97.40;;;;;;5065809;28;20069;-73
2021/12/20 11:09:46;;;;;;;22.27;3.17;;;8.70;97.40;;;;;;5065741;28;20053;-73
2021/12/20 11:12:15;;;;;;;22.88;3.25;;;8.60;97.60;;;;;;5032195;28;20046;-72
2021/12/20 11:14:48;;;;;;;19.75;2.80;;;8.50;97.30;;;;;;5015723;28;20060;-72
2021/12/20 11:17:16;;;;;;;23.17;3.88;;;8.40;96.10;;;;;;5032165;28;20081;-72
2021/12/20 11:19:44;;;;;;;19.55;2.78;;;8.30;97.10;;;;;;5033226;28;20042;-73
2021/12/20 11:22:11;;;;;;;16.70;2.80;;;8.30;97.10;;;;;;5031438;28;20396;-73
2021/12/20 11:24:36;;;;;;;12.57;1.65;;;8.40;97.30;;;;;;5032257;28;20054;-73
2021/12/20 11:27:06;;;;;;;8.50;1.63;;;8.60;96.20;;;;;;5032145;28;20053;-73
2021/12/20 11:29:33;;;;;;;14.05;1.90;;;8.50;95.00;;;;;;5041708;28;20045;-72
2021/12/20 11:32:00;;;;;;;11.60;1.42;;;8.70;96.40;;;;;;5053907;28;20198;-73
2021/12/20 11:34:26;;;;;;;14.05;1.55;;;9.00;96.20;;;;;;5044406;28;20053;-73
2021/12/20 11:36:53;;;;;;;11.85;1.80;;;9.30;96.30;;;;;;5035984;28;20498;-73
2021/12/20 11:39:18;;;;;;;10.65;1.20;;;9.60;96.30;;;;;;5019466;28;20057;-73
2021/12/20 11:41:44;;;;;;;10.77;1.40;;;9.80;94.00;;;;;;5035426;28;20060;-73
2021/12/20 11:44:16;;;;;;;8.23;0.90;;;10.00;92.70;;;;;;5035498;28;20451;-74
2021/12/20 11:47:03;;;;;;;6.30;1.08;;;10.20;94.00;;;;;;5036010;28;20095;-76
2021/12/20 11:49:30;;;;;;;;;;;10.30;94.40;;;;;;5036245;28;20053;-78
2021/12/20 11:52:05;;;;;;;12.40;1.60;;;10.30;94.20;;;;;;5051754;28;19921;-78
2021/12/20 11:54:52;;;;;;;12.55;1.23;;;10.10;96.10;;;;;;5035565;28;20064;-73
2021/12/20 11:57:32;;;;;;;8.10;0.85;;;9.90;94.30;;;;;;5019234;28;20140;-73
2021/12/20 12:00:02;;;;;;;12.52;1.50;;;9.70;95.10;;;;;;5036590;28;20093;-73
2021/12/20 12:02:31;;;;;;;8.75;1.08;;;9.70;94.90;;;;;;5035545;28;20049;-73
2021/12/20 12:05:05;;;;;;;7.25;1.10;;;9.70;94.90;;;;;;5035268;28;20059;-73
2021/12/20 12:07:37;;;;;;;6.57;0.98;;;9.80;92.40;;;;;;5034852;28;20457;-73
2021/12/20 12:10:15;;;;;;;7.88;1.05;;;10.10;94.00;;;;;;5068863;28;20088;-73
2021/12/20 12:12:43;;;;;;;8.50;1.27;;;10.50;93.90;;;;;;5035010;28;20053;-73
2021/12/20 12:15:28;;;;;;;6.22;1.00;;;10.60;93.40;;;;;;5035201;28;20065;-73
2021/12/20 12:17:55;;;;;;;7.88;1.08;;;10.70;92.90;;;;;;5035190;28;20056;-73
2021/12/20 12:20:47;;;;;;;5.32;0.50;;;10.30;90.60;;;;;;5037179;28;20049;-74
2021/12/20 12:23:19;;;;;;;7.20;0.70;;;10.20;91.30;;;;;;5018120;28;20128;-73
2021/12/20 12:25:53;;;;;;;7.75;0.90;;;9.90;91.80;;;;;;5034974;28;20095;-73
2021/12/20 12:28:25;;;;;;;7.22;0.60;;;9.90;92.30;;;;;;5039032;28;20096;-76
2021/12/20 12:31:05;;;;;;;5.82;0.75;;;9.90;90.00;;;;;;5031802;28;20064;-72
2021/12/20 12:33:34;;;;;;;6.70;0.77;;;10.00;91.60;;;;;;5015073;28;20053;-71
2021/12/20 12:36:08;;;;;;;4.40;0.60;;;10.50;92.20;;;;;;5015089;28;20061;-71
2021/12/20 12:38:56;;;;;;;4.53;0.60;;;10.90;92.00;;;;;;5016522;28;20132;-71
2021/12/20 12:41:27;;;;;;;2.55;0.40;;;11.40;92.50;;;;;;5024625;28;20143;-71
2021/12/20 12:44:02;;;;;;;6.32;0.80;;;12.10;91.70;;;;;;5032975;28;20231;-73
2021/12/20 12:46:41;;;;;;;5.00;0.98;;;12.60;90.30;;;;;;5028724;28;20049;-71
2021/12/20 12:49:22;;;;;;;3.50;0.60;;;13.00;86.80;;;;;;5032631;28;20049;-71
2021/12/20 12:51:58;;;;;;;4.30;0.60;;;13.40;79.60;;;;;;5034296;28;20444;-77
2021/12/20 12:54:32;;;;;;;4.30;0.60;;;13.90;87.50;;;;;;5034459;28;20053;-71
2021/12/20 12:57:13;;;;;;;8.05;0.95;;;14.50;87.50;;;;;;5034209;28;20107;-71
2021/12/20 12:59:47;;;;;;;9.80;0.90;;;15.00;86.60;;;;;;5035605;28;20064;-71
2021/12/20 13:02:25;;;;;;;8.25;1.10;;;15.50;84.30;;;;;;5034051;28;20059;-71
2021/12/20 13:05:16;;;;;;;7.72;1.08;;;16.20;84.60;;;;;;5034840;28;20400;-71
2021/12/20 13:07:51;;;;;;;4.70;0.88;;;16.50;82.50;;;;;;5033768;28;20064;-71